HomeShort term forecast

Short term forecast

Graphical weather forecast for the next 48 hours for Montreal:

Short term forecast

This weather forecast is automatically refreshed every 3 hours.

Hourly Experimental Forecast for the next 48 hours

Overall summary: Mostly cloudy throughout the day.

 Date & Hour   Temp   Feel   Baro   Hum   Speed & Bearing   Wind Gust   Precip.%   Precip.   Visibility   Cloud cover   Conditions 
 07/05/2021 - 00:00  7.2°C  5.8°C  1014.8 hPa  59%  7.7 km/h   12.2 km/h  0%  --  16.1km  14%  Clear 
 07/05/2021 - 01:00  6.6°C  5.5°C  1014.8 hPa  64%  6.2 km/h   9.4 km/h  0%  --  16.1km  14%  Clear 
 07/05/2021 - 02:00  6.0°C  5.0°C  1014.3 hPa  68%  5.6 km/h   8.7 km/h  1%  0.04 mm/h  16.1km  30%  Clear 
 07/05/2021 - 03:00  5.1°C  5.1°C  1014.7 hPa  74%  4.7 km/h   8.0 km/h  0%  --  16.1km  42%  Partly Cloudy 
 07/05/2021 - 04:00  4.4°C  4.4°C  1014.8 hPa  77%  4.8 km/h   7.4 km/h  0%  --  16.1km  37%  Partly Cloudy 
 07/05/2021 - 05:00  3.8°C  3.8°C  1015.0 hPa  80%  4.4 km/h   5.9 km/h  0%  --  16.1km  50%  Partly Cloudy 
 07/05/2021 - 06:00  3.8°C  3.8°C  1015.4 hPa  80%  4.4 km/h   5.9 km/h  0%  --  16.1km  30%  Clear 
 07/05/2021 - 07:00  5.1°C  5.1°C  1015.2 hPa  76%  3.7 km/h   7.4 km/h  1%  0.01 mm/h  16.1km  36%  Partly Cloudy 
 07/05/2021 - 08:00  6.8°C  6.8°C  1015.8 hPa  70%  4.6 km/h   10.0 km/h  0%  --  16.1km  38%  Partly Cloudy 
 07/05/2021 - 09:00  8.6°C  8.0°C  1015.8 hPa  64%  5.6 km/h   10.3 km/h  0%  --  16.1km  36%  Partly Cloudy 
 07/05/2021 - 10:00  10.4°C  10.4°C  1015.4 hPa  57%  6.2 km/h   10.0 km/h  1%  0.03 mm/h  16.1km  46%  Partly Cloudy 
 07/05/2021 - 11:00  11.6°C  11.6°C  1015.3 hPa  51%  6.9 km/h   10.4 km/h  0%  --  16.1km  59%  Partly Cloudy 
 07/05/2021 - 12:00  12.3°C  12.3°C  1014.9 hPa  45%  6.8 km/h   11.0 km/h  0%  --  16.1km  62%  Mostly Cloudy 
 07/05/2021 - 13:00  12.7°C  12.7°C  1014.0 hPa  45%  7.3 km/h   10.5 km/h  0%  --  16.1km  51%  Partly Cloudy 
 07/05/2021 - 14:00  13.8°C  13.8°C  1013.1 hPa  42%  7.5 km/h   11.3 km/h  0%  --  16.1km  52%  Partly Cloudy 
 07/05/2021 - 15:00  14.4°C  14.4°C  1012.6 hPa  41%  7.9 km/h   11.8 km/h  0%  --  16.1km  77%  Mostly Cloudy 
 07/05/2021 - 16:00  14.7°C  14.7°C  1012.2 hPa  40%  8.7 km/h   12.7 km/h  0%  --  16.1km  83%  Mostly Cloudy 
 07/05/2021 - 17:00  14.6°C  14.6°C  1012.0 hPa  41%  8.5 km/h   14.3 km/h  0%  --  16.1km  91%  Overcast 
 07/05/2021 - 18:00  14.5°C  14.5°C  1011.9 hPa  46%  10.1 km/h   16.4 km/h  0%  --  16.1km  89%  Overcast 
 07/05/2021 - 19:00  13.8°C  13.8°C  1011.9 hPa  52%  10.2 km/h   20.1 km/h  0%  --  16.1km  88%  Overcast 
 07/05/2021 - 20:00  12.8°C  12.8°C  1012.1 hPa  58%  8.8 km/h   18.5 km/h  2%  0.01 mm/h  16.1km  91%  Overcast 
 07/05/2021 - 21:00  11.9°C  11.9°C  1012.1 hPa  61%  9.4 km/h   22.8 km/h  2%  0.01 mm/h  16.1km  92%  Overcast 
 07/05/2021 - 22:00  11.4°C  11.4°C  1011.8 hPa  63%  10.2 km/h   28.2 km/h  2%  0.01 mm/h  16.1km  93%  Overcast 
 07/05/2021 - 23:00  10.9°C  10.9°C  1011.5 hPa  65%  10.0 km/h   27.7 km/h  1%  0.01 mm/h  16.1km  94%  Overcast 
 08/05/2021 - 00:00  10.5°C  10.5°C  1011.2 hPa  67%  10.0 km/h   24.1 km/h  2%  0.01 mm/h  16.1km  92%  Overcast 
 08/05/2021 - 01:00  9.9°C  8.6°C  1011.1 hPa  70%  9.5 km/h   21.4 km/h  0%  --  16.1km  95%  Overcast 
 08/05/2021 - 02:00  9.4°C  7.9°C  1010.9 hPa  73%  9.9 km/h   22.2 km/h  0%  --  16.1km  95%  Overcast 
 08/05/2021 - 03:00  8.6°C  7.2°C  1010.9 hPa  76%  9.2 km/h   22.2 km/h  0%  --  16.1km  95%  Overcast 
 08/05/2021 - 04:00  7.9°C  6.4°C  1010.9 hPa  77%  8.8 km/h   21.7 km/h  0%  --  16.1km  96%  Overcast 
 08/05/2021 - 05:00  7.5°C  5.8°C  1010.7 hPa  78%  8.8 km/h   21.5 km/h  1%  0.01 mm/h  16.1km  96%  Overcast 
 08/05/2021 - 06:00  7.7°C  6.0°C  1011.1 hPa  76%  9.5 km/h   23.0 km/h  3%  0.02 mm/h  16.1km  91%  Overcast 
 08/05/2021 - 07:00  8.4°C  6.8°C  1011.6 hPa  73%  9.7 km/h   21.2 km/h  3%  0.03 mm/h  16.1km  84%  Mostly Cloudy 
 08/05/2021 - 08:00  9.4°C  7.6°C  1011.9 hPa  69%  11.7 km/h   25.6 km/h  2%  0.02 mm/h  16.1km  79%  Mostly Cloudy 
 08/05/2021 - 09:00  10.6°C  10.6°C  1012.0 hPa  63%  11.7 km/h   23.3 km/h  2%  0.01 mm/h  16.1km  74%  Mostly Cloudy 
 08/05/2021 - 10:00  12.1°C  12.1°C  1011.8 hPa  55%  11.8 km/h   20.8 km/h  2%  0.01 mm/h  16.1km  71%  Mostly Cloudy 
 08/05/2021 - 11:00  13.4°C  13.4°C  1011.8 hPa  48%  12.1 km/h   20.0 km/h  0%  --  16.1km  71%  Mostly Cloudy 
 08/05/2021 - 12:00  14.0°C  14.0°C  1011.5 hPa  43%  11.6 km/h   17.8 km/h  0%  --  16.1km  80%  Mostly Cloudy 
 08/05/2021 - 13:00  15.0°C  15.0°C  1010.8 hPa  40%  11.0 km/h   16.1 km/h  2%  0.01 mm/h  16.1km  88%  Overcast 
 08/05/2021 - 14:00  15.4°C  15.4°C  1010.5 hPa  38%  9.8 km/h   12.7 km/h  2%  0.01 mm/h  16.1km  94%  Overcast 
 08/05/2021 - 15:00  15.9°C  15.9°C  1010.5 hPa  38%  8.7 km/h   9.9 km/h  2%  0.03 mm/h  16.1km  93%  Overcast 
 08/05/2021 - 16:00  15.6°C  15.6°C  1010.5 hPa  39%  8.2 km/h   8.9 km/h  3%  0.06 mm/h  16.1km  89%  Overcast 
 08/05/2021 - 17:00  15.0°C  15.0°C  1010.6 hPa  43%  10.1 km/h   11.3 km/h  3%  0.05 mm/h  16.1km  87%  Mostly Cloudy 
 08/05/2021 - 18:00  14.1°C  14.1°C  1011.0 hPa  51%  10.3 km/h   15.4 km/h  2%  0.04 mm/h  16.1km  88%  Overcast 
 08/05/2021 - 19:00  13.7°C  13.7°C  1011.2 hPa  57%  9.9 km/h   18.3 km/h  3%  0.05 mm/h  16.1km  90%  Overcast 
 08/05/2021 - 20:00  12.5°C  12.5°C  1011.8 hPa  63%  9.7 km/h   22.7 km/h  4%  0.06 mm/h  16.1km  91%  Overcast 
 08/05/2021 - 21:00  11.7°C  11.7°C  1012.2 hPa  67%  10.2 km/h   24.0 km/h  3%  0.03 mm/h  16.1km  90%  Overcast 
 08/05/2021 - 22:00  11.0°C  11.0°C  1012.4 hPa  71%  11.0 km/h   26.6 km/h  2%  0.02 mm/h  16.1km  88%  Overcast 
 08/05/2021 - 23:00  10.4°C  10.4°C  1012.6 hPa  75%  11.6 km/h   25.9 km/h  2%  0.03 mm/h  16.1km  84%  Mostly Cloudy 

 

Past weather and reports

Past weatherFind in this section the past weather conditions, weather archive, graphics, reports and statistics.

Current conditions

Current weather condition for MontrealAll you need to know about the current weather conditions for Montreal. Weather data is updated every 10 minutes.

Weather forecast

Current Montreal weatherSince 2004, celinium.com website has provided accurate weather forecast for Montreal's island.